createdAt,value
2018-12-01T07:16:35.165Z,92.67
2018-12-01T07:19:18.914Z,101.50
2018-12-01T07:21:47.610Z,98.67
2018-12-01T07:24:15.994Z,105.60
2018-12-01T07:26:44.747Z,102.17
2018-12-01T07:29:13.324Z,101.57
2018-12-01T07:31:41.842Z,108.83
2018-12-01T07:34:10.402Z,123.60
2018-12-01T07:36:39.690Z,116.97
2018-12-01T07:39:09.174Z,123.43
2018-12-01T07:41:37.850Z,120.90
2018-12-01T07:44:06.362Z,114.80
2018-12-01T07:46:34.809Z,108.83
2018-12-01T07:49:04.779Z,112.27
2018-12-01T07:51:33.248Z,117.17
2018-12-01T07:54:02.003Z,106.57
2018-12-01T07:56:30.498Z,123.60
2018-12-01T07:58:59.023Z,114.47
2018-12-01T08:01:27.366Z,108.53
2018-12-01T08:03:56.209Z,109.00
2018-12-01T08:06:24.719Z,107.90
2018-12-01T08:08:53.235Z,112.70
2018-12-01T08:11:21.773Z,108.63
2018-12-01T08:13:50.262Z,116.87
2018-12-01T08:16:18.795Z,108.67
2018-12-01T08:18:47.457Z,117.60
2018-12-01T08:21:16.035Z,102.17
2018-12-01T08:23:44.617Z,109.47
2018-12-01T08:26:13.615Z,110.33
2018-12-01T08:28:42.418Z,136.77
2018-12-01T08:31:11.200Z,117.03
2018-12-01T08:33:39.737Z,114.30
2018-12-01T08:36:08.287Z,108.67
2018-12-01T08:38:36.828Z,106.73
2018-12-01T08:41:05.632Z,99.73
2018-12-01T08:43:34.094Z,96.43
2018-12-01T08:46:02.506Z,92.77
2018-12-01T08:48:31.179Z,126.20
2018-12-01T08:50:59.744Z,116.80
2018-12-01T08:53:28.349Z,126.40
2018-12-01T08:55:56.851Z,86.10
2018-12-01T08:58:25.590Z,77.87
2018-12-01T09:00:54.057Z,87.90
2018-12-01T09:03:23.471Z,80.07
2018-12-01T09:05:52.752Z,77.00
2018-12-01T09:08:21.258Z,70.57
2018-12-01T09:10:49.651Z,74.37
2018-12-01T09:13:18.220Z,76.73
2018-12-01T09:15:46.627Z,76.17
2018-12-01T09:18:16.016Z,76.07
2018-12-01T09:20:44.542Z,74.60
2018-12-01T09:23:13.088Z,71.60
2018-12-01T09:25:42.787Z,72.80
2018-12-01T09:28:11.466Z,82.20
2018-12-01T09:30:41.434Z,83.93
2018-12-01T09:33:10.020Z,78.37
2018-12-01T09:35:38.978Z,90.20
2018-12-01T09:38:07.511Z,87.40
2018-12-01T09:40:36.258Z,83.27
2018-12-01T09:43:04.907Z,87.93
2018-12-01T09:45:48.029Z,113.63
2018-12-01T09:48:16.550Z,103.73
2018-12-01T09:50:45.287Z,106.30
2018-12-01T09:53:13.669Z,122.90
2018-12-01T09:55:43.041Z,115.83
2018-12-01T09:58:11.521Z,127.23
2018-12-01T10:00:58.823Z,135.17
2018-12-01T10:03:28.008Z,130.57
2018-12-01T10:05:56.451Z,139.57
2018-12-01T10:08:25.050Z,145.50
2018-12-01T10:10:53.832Z,138.93
2018-12-01T10:13:22.443Z,143.87
2018-12-01T10:15:50.927Z,142.87
2018-12-01T10:18:19.525Z,143.03
2018-12-01T10:20:48.206Z,162.10
2018-12-01T10:23:16.667Z,144.63
2018-12-01T10:25:45.133Z,153.97
2018-12-01T10:28:13.598Z,151.50
2018-12-01T10:30:41.979Z,160.90
2018-12-01T10:33:10.592Z,146.43
2018-12-01T10:35:40.021Z,152.47
2018-12-01T10:38:15.203Z,158.77
2018-12-01T10:40:43.722Z,155.53
2018-12-01T10:43:12.156Z,148.60
2018-12-01T10:45:40.580Z,143.53
2018-12-01T10:48:09.759Z,150.10
2018-12-01T10:50:38.499Z,137.47
2018-12-01T10:53:07.558Z,131.77
2018-12-01T10:55:36.467Z,125.33
2018-12-01T10:58:08.324Z,130.10
2018-12-01T11:00:42.126Z,139.70
2018-12-01T11:03:15.791Z,125.53
2018-12-01T11:05:45.498Z,112.43
2018-12-01T11:08:15.053Z,94.53
2018-12-01T11:10:43.960Z,85.23
2018-12-01T11:13:13.476Z,89.47
2018-12-01T11:15:41.877Z,78.10
2018-12-01T11:18:10.382Z,74.17
2018-12-01T11:20:39.057Z,77.20
2018-12-01T11:23:07.680Z,82.10
2018-12-01T11:25:36.133Z,80.10
2018-12-01T11:28:04.879Z,89.63
2018-12-01T11:30:33.522Z,73.60
2018-12-01T11:33:02.242Z,74.37
2018-12-01T11:35:31.044Z,74.63
2018-12-01T11:37:59.549Z,62.70
2018-12-01T11:40:30.250Z,67.07
2018-12-01T11:42:58.926Z,62.30
2018-12-01T11:45:28.682Z,62.97
2018-12-01T11:47:57.122Z,61.13
2018-12-01T11:50:26.431Z,64.03
2018-12-01T11:52:54.879Z,78.23
2018-12-01T11:55:24.589Z,64.53
2018-12-01T11:57:54.038Z,67.17
2018-12-01T12:00:24.846Z,71.13
2018-12-01T12:02:53.409Z,65.10
2018-12-01T12:05:21.922Z,70.47
2018-12-01T12:08:28.203Z,63.90
2018-12-01T12:10:57.238Z,70.13
2018-12-01T12:13:28.989Z,71.37
2018-12-01T12:15:57.735Z,63.70
2018-12-01T12:18:26.182Z,64.90
2018-12-01T12:20:54.763Z,69.13
2018-12-01T12:23:23.193Z,70.73
2018-12-01T12:25:51.613Z,74.37
2018-12-01T12:28:21.021Z,76.67
2018-12-01T12:30:49.778Z,70.53
2018-12-01T12:33:18.122Z,66.53
2018-12-01T12:35:47.893Z,74.43
2018-12-01T12:38:17.115Z,71.57
2018-12-01T12:40:46.501Z,66.53
2018-12-01T12:43:14.920Z,68.93
2018-12-01T12:45:43.466Z,75.77
2018-12-01T12:48:11.933Z,76.17
2018-12-01T12:50:40.402Z,69.87
2018-12-01T12:53:08.879Z,78.87
2018-12-01T12:55:37.446Z,79.77
2018-12-01T12:58:06.749Z,83.63
2018-12-01T13:00:36.499Z,73.67
2018-12-01T13:03:09.174Z,62.80
2018-12-01T13:05:40.865Z,68.50
2018-12-01T13:08:10.166Z,79.00
2018-12-01T13:10:39.208Z,66.63
2018-12-01T13:13:07.889Z,76.47
2018-12-01T13:15:38.332Z,76.27
2018-12-01T13:18:13.195Z,83.47
2018-12-01T13:20:48.692Z,74.00
2018-12-01T13:23:18.198Z,80.57
2018-12-01T13:25:47.237Z,74.30
2018-12-01T13:28:20.175Z,77.50
2018-12-01T13:30:51.328Z,76.27
2018-12-01T13:33:19.937Z,74.63
2018-12-01T13:35:48.664Z,79.67
2018-12-01T13:38:17.349Z,73.63
2018-12-01T13:40:46.618Z,86.80
2018-12-01T13:43:15.226Z,103.63
2018-12-01T13:45:44.173Z,98.80
2018-12-01T13:48:13.457Z,106.37
2018-12-01T13:50:41.950Z,97.47
2018-12-01T13:53:12.522Z,101.23
2018-12-01T13:55:41.012Z,106.40
2018-12-01T13:58:09.506Z,95.93
2018-12-01T14:00:38.994Z,97.10
2018-12-01T14:03:08.849Z,94.13
2018-12-01T14:05:37.554Z,103.47
2018-12-01T14:08:06.778Z,90.40
2018-12-01T14:10:36.573Z,79.93
2018-12-01T14:13:08.276Z,100.57
2018-12-01T14:15:36.820Z,91.77
2018-12-01T14:18:06.091Z,88.30
2018-12-01T14:20:35.023Z,96.07
2018-12-01T14:23:04.183Z,90.17
2018-12-01T14:25:32.778Z,84.87
2018-12-01T14:28:03.696Z,82.33
2018-12-01T14:30:32.261Z,97.23
2018-12-01T14:33:00.766Z,81.33
2018-12-01T14:35:33.535Z,90.97
2018-12-01T14:38:06.849Z,143.63
2018-12-01T14:40:35.471Z,97.97
2018-12-01T14:43:04.024Z,94.30
2018-12-01T14:45:32.604Z,106.57
2018-12-01T14:48:01.104Z,119.20
2018-12-01T14:50:29.839Z,106.27
2018-12-01T14:52:58.259Z,118.97
2018-12-01T14:55:26.608Z,99.30
2018-12-01T14:57:55.053Z,142.87
2018-12-01T15:00:24.464Z,116.43
2018-12-01T15:02:55.046Z,115.60
2018-12-01T15:05:24.026Z,117.43
2018-12-01T15:07:52.486Z,115.97
2018-12-01T15:10:24.989Z,94.07
2018-12-01T15:12:53.604Z,101.67
2018-12-01T15:15:27.164Z,107.83
2018-12-01T15:17:55.657Z,117.13
2018-12-01T15:20:26.137Z,109.03
2018-12-01T15:22:56.363Z,114.00
2018-12-01T15:25:25.954Z,113.07
2018-12-01T15:27:54.572Z,104.93
2018-12-01T15:30:23.936Z,110.20
2018-12-01T15:32:55.956Z,126.47
2018-12-01T15:35:24.473Z,131.23
2018-12-01T15:37:53.045Z,126.83
2018-12-01T15:40:22.242Z,151.10
2018-12-01T15:42:50.798Z,123.57
2018-12-01T15:45:20.579Z,136.43
2018-12-01T15:47:49.035Z,123.63
2018-12-01T15:50:19.264Z,129.70
2018-12-01T15:52:50.116Z,119.97
2018-12-01T15:55:18.586Z,130.13
2018-12-01T15:57:47.922Z,130.90
2018-12-01T16:00:19.297Z,123.73
2018-12-01T16:02:47.730Z,136.33
2018-12-01T16:05:17.301Z,135.97
2018-12-01T16:07:45.917Z,121.07
2018-12-01T16:10:15.418Z,114.13
2018-12-01T16:12:45.861Z,119.77
2018-12-01T16:15:18.255Z,131.20
2018-12-01T16:17:47.044Z,125.20
2018-12-01T16:20:15.771Z,115.17
2018-12-01T16:22:44.154Z,128.87
2018-12-01T16:25:15.066Z,117.33
2018-12-01T16:27:44.459Z,110.97
2018-12-01T16:30:21.141Z,112.27
2018-12-01T16:32:51.152Z,124.03
2018-12-01T16:35:19.623Z,120.57
2018-12-01T16:37:48.327Z,97.57
2018-12-01T16:40:20.201Z,113.97
2018-12-01T16:42:48.889Z,105.83
2018-12-01T16:45:18.449Z,109.87
2018-12-01T16:47:47.614Z,117.33
2018-12-01T16:50:16.385Z,107.10
2018-12-01T16:52:45.703Z,127.50
2018-12-01T16:55:17.255Z,115.67
2018-12-01T16:57:46.250Z,122.57
2018-12-01T17:00:20.414Z,122.37
2018-12-01T17:02:53.388Z,112.40
2018-12-01T17:05:22.990Z,116.77
2018-12-01T17:07:51.533Z,120.87
2018-12-01T17:10:20.997Z,107.30
2018-12-01T17:12:58.399Z,127.97
2018-12-01T17:15:25.932Z,115.63
2018-12-01T17:17:54.339Z,116.23
2018-12-01T17:20:23.015Z,114.63
2018-12-01T17:22:57.743Z,118.47
2018-12-01T17:25:26.538Z,116.10
2018-12-01T17:27:56.309Z,115.33
2018-12-01T17:30:27.928Z,115.93
2018-12-01T17:32:57.564Z,121.20
2018-12-01T17:35:27.822Z,112.63
2018-12-01T17:38:00.442Z,120.60
2018-12-01T17:40:33.242Z,137.90
2018-12-01T17:43:01.778Z,119.83
2018-12-01T17:45:30.195Z,121.13
2018-12-01T17:47:59.219Z,132.63
2018-12-01T17:50:27.618Z,120.60
2018-12-01T17:52:56.986Z,133.33
2018-12-01T17:55:27.056Z,133.83
2018-12-01T17:57:55.728Z,135.73
2018-12-01T18:00:25.685Z,124.10
2018-12-01T18:02:56.938Z,118.83
2018-12-01T18:05:40.454Z,121.13
2018-12-01T18:08:13.309Z,128.27
2018-12-01T18:10:41.779Z,127.20
2018-12-01T18:13:10.293Z,122.97
2018-12-01T18:15:38.738Z,111.30
2018-12-01T18:18:07.332Z,126.57
2018-12-01T18:20:35.789Z,123.20
2018-12-01T18:23:04.288Z,143.90
2018-12-01T18:25:36.647Z,150.50
2018-12-01T18:28:13.565Z,129.97
2018-12-01T18:30:42.212Z,140.70
2018-12-01T18:33:13.304Z,126.50
2018-12-01T18:35:42.257Z,128.37
2018-12-01T18:38:11.423Z,134.43
2018-12-01T18:40:39.976Z,136.20
2018-12-01T18:43:09.199Z,125.47
2018-12-01T18:45:39.244Z,116.50
2018-12-01T18:48:07.687Z,129.43
2018-12-01T18:50:36.471Z,118.67
2018-12-01T18:53:07.636Z,110.17
2018-12-01T18:55:37.484Z,121.87
2018-12-01T18:58:07.844Z,115.83
2018-12-01T19:00:48.101Z,117.83
2018-12-01T19:03:16.857Z,105.20
2018-12-01T19:05:45.292Z,114.33
2018-12-01T19:08:13.680Z,139.83
2018-12-01T19:10:42.089Z,128.87
2018-12-01T19:13:10.670Z,136.37
2018-12-01T19:15:39.142Z,135.97
2018-12-01T19:18:08.273Z,147.63
2018-12-01T19:20:37.105Z,144.17
2018-12-01T19:23:06.874Z,140.03
2018-12-01T19:25:35.321Z,147.83
2018-12-01T19:28:03.785Z,149.30
2018-12-01T19:30:32.258Z,146.90
2018-12-01T19:33:03.698Z,149.23
2018-12-01T19:35:32.058Z,133.70
2018-12-01T19:38:00.558Z,134.00
2018-12-01T19:40:31.237Z,138.20
2018-12-01T19:43:00.707Z,131.23
2018-12-01T19:45:29.183Z,114.87
2018-12-01T19:47:57.829Z,126.43
2018-12-01T19:50:27.622Z,150.20
2018-12-01T19:52:56.010Z,142.13
2018-12-01T19:55:25.745Z,138.07
2018-12-01T19:57:54.204Z,132.83
2018-12-01T20:00:29.052Z,140.10
2018-12-01T20:02:59.295Z,134.87
2018-12-01T20:05:27.707Z,134.53
2018-12-01T20:07:56.210Z,128.77
2018-12-01T20:10:32.295Z,121.27
2018-12-01T20:13:03.786Z,121.53
2018-12-01T20:15:36.339Z,121.47
2018-12-01T20:18:08.762Z,120.97
2018-12-01T20:20:37.191Z,110.53
2018-12-01T20:23:06.127Z,126.47
2018-12-01T20:25:34.564Z,124.27
2018-12-01T20:28:03.983Z,112.47
2018-12-01T20:30:32.467Z,109.37
2018-12-01T20:33:00.965Z,122.97
2018-12-01T20:35:39.780Z,128.03
2018-12-01T20:38:13.097Z,131.03
2018-12-01T20:40:41.615Z,147.30
2018-12-01T20:43:10.106Z,140.83
2018-12-01T20:45:38.578Z,149.57
2018-12-01T20:48:07.516Z,166.23
2018-12-01T20:50:36.092Z,156.20
2018-12-01T20:53:04.571Z,162.73
2018-12-01T20:55:33.072Z,151.87
2018-12-01T20:58:03.070Z,145.60
2018-12-01T21:00:31.550Z,141.67
2018-12-01T21:03:00.064Z,143.13
2018-12-01T21:05:28.546Z,138.70
2018-12-01T21:08:02.043Z,133.60
2018-12-01T21:10:33.933Z,123.93
2018-12-01T21:13:03.214Z,117.60
2018-12-01T21:15:31.647Z,115.87
2018-12-01T21:18:00.120Z,115.87
2018-12-01T21:20:28.611Z,117.63
2018-12-01T21:22:57.174Z,119.67
2018-12-01T21:25:27.102Z,122.57
2018-12-01T21:27:57.206Z,128.20
2018-12-01T21:30:26.921Z,126.43
2018-12-01T21:33:14.929Z,129.80
2018-12-01T21:35:43.430Z,125.00
2018-12-01T21:38:13.428Z,126.37
2018-12-01T21:40:42.641Z,119.93
2018-12-01T21:43:12.014Z,114.43
2018-12-01T21:45:40.568Z,111.67
2018-12-01T21:48:10.608Z,117.47
2018-12-01T21:50:40.083Z,119.10
2018-12-01T21:53:14.782Z,119.93
2018-12-01T21:55:43.254Z,119.27
2018-12-01T21:58:11.832Z,122.60
2018-12-01T22:00:42.801Z,119.93
2018-12-01T22:03:13.037Z,118.40
2018-12-01T22:05:43.034Z,128.80
2018-12-01T22:08:13.333Z,122.77
2018-12-01T22:10:41.974Z,135.23
2018-12-01T22:13:10.461Z,132.07
2018-12-01T22:15:38.999Z,135.43
2018-12-01T22:18:07.436Z,137.80
2018-12-01T22:20:35.818Z,126.60
2018-12-01T22:23:04.402Z,126.40
2018-12-01T22:25:32.873Z,118.00
2018-12-01T22:28:01.401Z,121.43
2018-12-01T22:30:29.894Z,113.60
2018-12-01T22:32:59.507Z,131.70
2018-12-01T22:35:29.183Z,108.13
2018-12-01T22:37:58.542Z,107.40
2018-12-01T22:40:34.094Z,101.53
2018-12-01T22:43:05.976Z,108.70
2018-12-01T22:45:34.476Z,90.37
2018-12-01T22:48:03.946Z,92.57
2018-12-01T22:50:32.343Z,87.93
2018-12-01T22:53:00.908Z,97.43
2018-12-01T22:55:31.844Z,84.23
2018-12-01T22:58:02.582Z,88.57
2018-12-01T23:00:40.635Z,91.80
2018-12-01T23:03:09.650Z,86.07
2018-12-01T23:05:38.166Z,81.17
2018-12-01T23:08:08.364Z,80.73
2018-12-01T23:10:36.858Z,84.37
2018-12-01T23:13:06.099Z,73.73
2018-12-01T23:15:34.632Z,74.80
2018-12-01T23:18:03.162Z,74.50
2018-12-01T23:20:31.602Z,75.47
2018-12-01T23:23:00.111Z,83.17
2018-12-01T23:25:28.702Z,67.13
2018-12-01T23:28:00.207Z,75.93
2018-12-01T23:30:29.745Z,65.80
2018-12-01T23:33:01.028Z,68.87
2018-12-01T23:35:30.278Z,79.83
2018-12-01T23:37:59.034Z,78.90
2018-12-01T23:40:28.127Z,79.93
2018-12-01T23:42:55.973Z,73.53
2018-12-01T23:45:24.405Z,76.23
2018-12-01T23:47:53.214Z,82.17
2018-12-01T23:50:28.385Z,80.87
2018-12-01T23:53:10.222Z,82.03
2018-12-01T23:55:38.629Z,85.73
2018-12-01T23:58:07.115Z,77.50
